La rose des vents
Donnes mto: Semaine 13/06/05 - 19/06/05 (S 24)
Date Horaire Temp. E. Hum. E. P.atmo. Pluie Vent 1mn Direction Ensoleilleme Ev.Tr. Solaire P. de rose Temp au vent Rafales
13/06/2005 00:00 15,5 C 78 % 1012,5 hPa 0,0 l/m 2,0 km/h (1 Bft) NO 0,00 h 0,025 mm 0 W/m 11,6 C 15,5 C 3,1 km/h (1 Bft)
13/06/2005 01:00 15,0 C 80 % 1012,3 hPa 0,0 l/m 1,3 km/h (1 Bft) N 0,00 h 0,025 mm 0 W/m 11,5 C 15,0 C 3,3 km/h (1 Bft)
13/06/2005 02:00 14,6 C 81 % 1011,9 hPa 0,0 l/m 1,6 km/h (1 Bft) N 0,00 h 0,025 mm 0 W/m 11,5 C 14,6 C 3,0 km/h (1 Bft)
13/06/2005 03:00 14,7 C 78 % 1011,8 hPa 0,0 l/m 3,4 km/h (1 Bft) O-NO 0,00 h 0,025 mm 0 W/m 11,0 C 14,7 C 4,9 km/h (1 Bft)
13/06/2005 04:00 15,0 C 77 % 1011,5 hPa 0,0 l/m 2,8 km/h (1 Bft) NO 0,00 h 0,025 mm 0 W/m 11,0 C 15,0 C 4,4 km/h (1 Bft)
13/06/2005 05:00 14,7 C 79 % 1011,3 hPa 0,0 l/m 1,7 km/h (1 Bft) NO 0,00 h 0,025 mm 5 W/m 11,1 C 14,7 C 3,0 km/h (1 Bft)
13/06/2005 06:00 14,9 C 80 % 1011,3 hPa 0,0 l/m 2,2 km/h (1 Bft) NO 0,00 h 0,000 mm 20 W/m 11,4 C 14,9 C 3,9 km/h (1 Bft)
13/06/2005 07:00 16,8 C 72 % 1011,5 hPa 0,0 l/m 2,2 km/h (1 Bft) N-NO 0,62 h 0,025 mm 168 W/m 11,6 C 16,8 C 4,1 km/h (1 Bft)
13/06/2005 08:00 19,3 C 57 % 1011,8 hPa 0,0 l/m 1,9 km/h (1 Bft) N 0,50 h 0,102 mm 261 W/m 10,6 C 19,3 C 4,1 km/h (1 Bft)
13/06/2005 09:00 20,2 C 48 % 1012,0 hPa 0,0 l/m 2,2 km/h (1 Bft) NE 0,50 h 0,178 mm 347 W/m 8,7 C 20,2 C 4,1 km/h (1 Bft)
13/06/2005 10:00 22,2 C 41 % 1012,2 hPa 0,0 l/m 4,8 km/h (1 Bft) E 0,95 h 0,229 mm 665 W/m 8,3 C 22,2 C 7,7 km/h (2 Bft)
13/06/2005 11:00 24,0 C 34 % 1012,2 hPa 0,0 l/m 9,1 km/h (2 Bft) E 1,00 h 0,432 mm 792 W/m 7,1 C 24,0 C 14,0 km/h (3 Bft)
13/06/2005 12:00 24,4 C 31 % 1012,2 hPa 0,0 l/m 9,8 km/h (2 Bft) E 1,00 h 0,584 mm 874 W/m 6,2 C 24,4 C 16,0 km/h (3 Bft)
13/06/2005 13:00 23,5 C 53 % 1012,3 hPa 0,0 l/m 11,6 km/h (2 Bft) E 1,00 h 0,660 mm 912 W/m 13,1 C 23,5 C 18,9 km/h (3 Bft)
13/06/2005 14:00 23,0 C 66 % 1012,6 hPa 0,0 l/m 10,7 km/h (2 Bft) E 0,55 h 0,635 mm 676 W/m 16,2 C 23,0 C 17,9 km/h (3 Bft)
13/06/2005 15:00 22,1 C 71 % 1012,8 hPa 0,0 l/m 12,8 km/h (3 Bft) E 0,33 h 0,508 mm 525 W/m 16,5 C 22,1 C 19,1 km/h (3 Bft)
13/06/2005 16:00 21,6 C 74 % 1012,5 hPa 0,0 l/m 10,2 km/h (2 Bft) E 0,20 h 0,356 mm 307 W/m 16,7 C 21,6 C 16,2 km/h (3 Bft)
13/06/2005 17:00 21,1 C 75 % 1012,1 hPa 0,0 l/m 10,8 km/h (2 Bft) E 0,03 h 0,229 mm 221 W/m 16,6 C 21,1 C 15,5 km/h (3 Bft)
13/06/2005 18:00 20,8 C 76 % 1011,8 hPa 0,0 l/m 7,8 km/h (2 Bft) E 0,12 h 0,178 mm 177 W/m 16,5 C 20,8 C 11,9 km/h (2 Bft)
13/06/2005 19:00 20,1 C 78 % 1011,8 hPa 0,0 l/m 6,7 km/h (2 Bft) E 0,13 h 0,127 mm 96 W/m 16,1 C 20,1 C 10,1 km/h (2 Bft)
13/06/2005 20:00 19,1 C 82 % 1011,9 hPa 0,0 l/m 4,0 km/h (1 Bft) E 0,00 h 0,076 mm 23 W/m 16,0 C 19,1 C 6,3 km/h (2 Bft)
13/06/2005 21:00 18,5 C 82 % 1011,7 hPa 0,0 l/m 2,3 km/h (1 Bft) E 0,00 h 0,025 mm 6 W/m 15,4 C 18,5 C 4,1 km/h (1 Bft)
13/06/2005 22:00 18,2 C 83 % 1011,8 hPa 0,0 l/m 0,9 km/h (0 Bft) N 0,00 h 0,000 mm 0 W/m 15,2 C 18,2 C 1,5 km/h (1 Bft)
13/06/2005 23:00 17,6 C 86 % 1011,6 hPa 0,0 l/m 0,0 km/h (0 Bft) N 0,00 h 0,025 mm 0 W/m 15,2 C 17,6 C 0,1 km/h (0 Bft)
14/06/2005 00:00 17,3 C 88 % 1011,4 hPa 0,0 l/m 2,1 km/h (1 Bft) NO 0,00 h 0,000 mm 0 W/m 15,2 C 17,3 C 3,4 km/h (1 Bft)
14/06/2005 01:00 17,6 C 87 % 1011,1 hPa 0,0 l/m 2,9 km/h (1 Bft) N-NO 0,00 h 0,025 mm 0 W/m 15,4 C 17,6 C 4,8 km/h (1 Bft)
14/06/2005 02:00 18,0 C 84 % 1011,3 hPa 0,0 l/m 1,9 km/h (1 Bft) O-NO 0,00 h 0,025 mm 0 W/m 15,2 C 18,0 C 3,6 km/h (1 Bft)
14/06/2005 03:00 18,2 C 80 % 1011,7 hPa 0,2 l/m 2,5 km/h (1 Bft) N 0,00 h 0,025 mm 0 W/m 14,6 C 18,2 C 4,1 km/h (1 Bft)
14/06/2005 04:00 17,5 C 83 % 1011,5 hPa 0,0 l/m 9,8 km/h (2 Bft) E-NE 0,00 h 0,025 mm 0 W/m 14,5 C 17,5 C 14,1 km/h (3 Bft)
14/06/2005 05:00 17,0 C 83 % 1011,5 hPa 0,0 l/m 5,5 km/h (1 Bft) E-NE 0,00 h 0,025 mm 0 W/m 14,2 C 17,0 C 8,2 km/h (2 Bft)
14/06/2005 06:00 17,1 C 83 % 1010,9 hPa 0,0 l/m 8,7 km/h (2 Bft) E-NE 0,23 h 0,025 mm 61 W/m 14,3 C 17,1 C 12,3 km/h (3 Bft)
14/06/2005 07:00 16,9 C 83 % 1011,4 hPa 2,4 l/m 4,1 km/h (1 Bft) E 0,00 h 0,051 mm 11 W/m 14,1 C 16,9 C 6,5 km/h (2 Bft)
14/06/2005 08:00 16,0 C 90 % 1011,7 hPa 0,4 l/m 3,1 km/h (1 Bft) O-SO 0,00 h 0,025 mm 7 W/m 14,4 C 16,0 C 4,5 km/h (1 Bft)
14/06/2005 09:00 16,1 C 92 % 1012,5 hPa 0,4 l/m 3,9 km/h (1 Bft) SO 0,00 h 0,000 mm 33 W/m 14,8 C 16,1 C 5,5 km/h (1 Bft)
14/06/2005 10:00 18,6 C 87 % 1012,2 hPa 0,2 l/m 2,7 km/h (1 Bft) E 0,70 h 0,025 mm 639 W/m 16,3 C 18,6 C 4,7 km/h (1 Bft)
14/06/2005 11:00 19,3 C 82 % 1012,2 hPa 0,0 l/m 3,7 km/h (1 Bft) S 0,02 h 0,356 mm 282 W/m 16,2 C 19,3 C 5,6 km/h (1 Bft)
14/06/2005 12:00 20,4 C 73 % 1012,7 hPa 0,0 l/m 4,7 km/h (1 Bft) E 0,17 h 0,178 mm 399 W/m 15,4 C 20,4 C 8,0 km/h (2 Bft)
14/06/2005 13:00 20,4 C 73 % 1013,1 hPa 0,0 l/m 6,4 km/h (2 Bft) E 0,48 h 0,254 mm 516 W/m 15,3 C 20,4 C 10,3 km/h (2 Bft)
14/06/2005 14:00 21,0 C 73 % 1013,2 hPa 0,0 l/m 7,6 km/h (2 Bft) E 0,77 h 0,330 mm 572 W/m 16,0 C 21,0 C 12,8 km/h (3 Bft)
14/06/2005 15:00 21,6 C 70 % 1013,2 hPa 0,0 l/m 8,2 km/h (2 Bft) E 0,98 h 0,381 mm 796 W/m 15,9 C 21,6 C 13,3 km/h (3 Bft)
14/06/2005 16:00 22,2 C 67 % 1013,1 hPa 0,0 l/m 5,6 km/h (1 Bft) E 1,00 h 0,508 mm 737 W/m 15,7 C 22,2 C 9,6 km/h (2 Bft)
14/06/2005 17:00 21,9 C 68 % 1012,7 hPa 0,0 l/m 5,1 km/h (1 Bft) E-SE 0,65 h 0,457 mm 404 W/m 15,7 C 21,9 C 8,4 km/h (2 Bft)
14/06/2005 18:00 19,5 C 79 % 1013,3 hPa 0,0 l/m 2,5 km/h (1 Bft) E-SE 0,00 h 0,254 mm 45 W/m 15,7 C 19,5 C 4,7 km/h (1 Bft)
14/06/2005 19:00 18,4 C 86 % 1014,4 hPa 3,0 l/m 2,4 km/h (1 Bft) S-SE 0,00 h 0,025 mm 10 W/m 16,0 C 18,4 C 4,2 km/h (1 Bft)
14/06/2005 20:00 17,5 C 91 % 1014,1 hPa 0,4 l/m 4,2 km/h (1 Bft) O-SO 0,00 h 0,025 mm 19 W/m 15,9 C 17,5 C 6,1 km/h (2 Bft)
14/06/2005 21:00 17,1 C 92 % 1014,4 hPa 0,2 l/m 2,3 km/h (1 Bft) N-NE 0,00 h 0,025 mm 0 W/m 15,8 C 17,1 C 4,1 km/h (1 Bft)
14/06/2005 22:00 16,6 C 92 % 1015,0 hPa 0,0 l/m 5,5 km/h (1 Bft) O-NO 0,00 h 0,000 mm 0 W/m 15,4 C 16,6 C 7,4 km/h (2 Bft)
14/06/2005 23:00 16,0 C 92 % 1015,1 hPa 0,0 l/m 3,3 km/h (1 Bft) N 0,00 h 0,000 mm 0 W/m 14,7 C 16,0 C 5,2 km/h (1 Bft)
15/06/2005 00:00 16,1 C 92 % 1015,7 hPa 0,0 l/m 1,0 km/h (0 Bft) N 0,00 h 0,000 mm 0 W/m 14,8 C 16,1 C 2,1 km/h (1 Bft)
15/06/2005 01:00 16,1 C 92 % 1015,7 hPa 0,0 l/m 2,9 km/h (1 Bft) NO 0,00 h 0,000 mm 0 W/m 14,8 C 16,1 C 4,4 km/h (1 Bft)
15/06/2005 02:00 16,2 C 92 % 1015,8 hPa 0,0 l/m 1,4 km/h (1 Bft) NO 0,00 h 0,000 mm 0 W/m 14,9 C 16,2 C 2,2 km/h (1 Bft)
15/06/2005 03:00 15,9 C 92 % 1015,9 hPa 0,0 l/m 2,1 km/h (1 Bft) NO 0,00 h 0,000 mm 0 W/m 14,6 C 15,9 C 3,9 km/h (1 Bft)
15/06/2005 04:00 15,8 C 92 % 1015,5 hPa 0,0 l/m 1,0 km/h (0 Bft) N 0,00 h 0,000 mm 0 W/m 14,5 C 15,8 C 2,7 km/h (1 Bft)
15/06/2005 05:00 15,2 C 92 % 1015,5 hPa 0,0 l/m 2,5 km/h (1 Bft) N 0,00 h 0,000 mm 6 W/m 13,9 C 15,2 C 4,0 km/h (1 Bft)
15/06/2005 06:00 14,8 C 92 % 1015,6 hPa 0,0 l/m 3,2 km/h (1 Bft) N 0,02 h 0,000 mm 22 W/m 13,5 C 14,8 C 5,0 km/h (1 Bft)
15/06/2005 07:00 16,4 C 88 % 1016,2 hPa 0,0 l/m 0,2 km/h (0 Bft) N 0,62 h 0,025 mm 144 W/m 14,4 C 16,4 C 0,7 km/h (0 Bft)
15/06/2005 08:00 18,9 C 79 % 1016,5 hPa 0,2 l/m 2,0 km/h (1 Bft) S-SO 1,00 h 0,076 mm 336 W/m 15,2 C 18,9 C 3,9 km/h (1 Bft)
15/06/2005 09:00 20,8 C 70 % 1016,6 hPa 0,0 l/m 3,6 km/h (1 Bft) S-SO 1,00 h 0,203 mm 535 W/m 15,2 C 20,8 C 5,8 km/h (2 Bft)
15/06/2005 10:00 22,3 C 62 % 1017,0 hPa 0,0 l/m 4,7 km/h (1 Bft) S 1,00 h 0,330 mm 707 W/m 14,7 C 22,3 C 7,6 km/h (2 Bft)
15/06/2005 11:00 24,0 C 56 % 1017,0 hPa 0,0 l/m 6,4 km/h (2 Bft) E 1,00 h 0,457 mm 861 W/m 14,7 C 24,0 C 10,0 km/h (2 Bft)
15/06/2005 12:00 24,0 C 57 % 1017,2 hPa 0,0 l/m 11,7 km/h (2 Bft) S 1,00 h 0,559 mm 907 W/m 15,0 C 24,0 C 17,7 km/h (3 Bft)
15/06/2005 13:00 23,9 C 56 % 1017,3 hPa 0,0 l/m 11,1 km/h (2 Bft) S 0,93 h 0,635 mm 949 W/m 14,5 C 23,9 C 16,7 km/h (3 Bft)
15/06/2005 14:00 24,3 C 55 % 1017,0 hPa 0,0 l/m 9,0 km/h (2 Bft) SE 0,83 h 0,635 mm 828 W/m 14,7 C 24,3 C 14,5 km/h (3 Bft)
15/06/2005 15:00 23,8 C 58 % 1016,9 hPa 0,0 l/m 6,1 km/h (2 Bft) S-SE 0,08 h 0,559 mm 355 W/m 14,9 C 23,8 C 10,6 km/h (2 Bft)
15/06/2005 16:00 22,6 C 60 % 1016,6 hPa 0,0 l/m 6,5 km/h (2 Bft) E-NE 0,03 h 0,279 mm 212 W/m 14,5 C 22,6 C 10,0 km/h (2 Bft)
15/06/2005 17:00 22,0 C 64 % 1016,6 hPa 0,0 l/m 4,2 km/h (1 Bft) S 0,00 h 0,178 mm 167 W/m 14,8 C 22,0 C 6,7 km/h (2 Bft)
15/06/2005 18:00 21,5 C 68 % 1016,6 hPa 0,0 l/m 5,5 km/h (1 Bft) S-SO 0,15 h 0,127 mm 154 W/m 15,2 C 21,5 C 7,7 km/h (2 Bft)
15/06/2005 19:00 21,7 C 65 % 1016,8 hPa 0,0 l/m 5,6 km/h (1 Bft) S-SO 0,37 h 0,127 mm 139 W/m 14,8 C 21,7 C 7,7 km/h (2 Bft)
15/06/2005 20:00 20,9 C 67 % 1016,9 hPa 0,0 l/m 1,3 km/h (1 Bft) SO 0,00 h 0,127 mm 35 W/m 14,6 C 20,9 C 2,3 km/h (1 Bft)
15/06/2005 21:00 19,5 C 76 % 1016,9 hPa 0,0 l/m 1,0 km/h (0 Bft) NO 0,00 h 0,025 mm 7 W/m 15,1 C 19,5 C 2,1 km/h (1 Bft)
15/06/2005 22:00 18,6 C 81 % 1017,0 hPa 0,0 l/m 1,0 km/h (0 Bft) N-NO 0,00 h 0,000 mm 0 W/m 15,3 C 18,6 C 2,0 km/h (1 Bft)
15/06/2005 23:00 18,3 C 82 % 1016,9 hPa 0,0 l/m 2,6 km/h (1 Bft) NO 0,00 h 0,025 mm 0 W/m 15,2 C 18,3 C 4,5 km/h (1 Bft)
16/06/2005 00:00 18,3 C 82 % 1017,2 hPa 0,0 l/m 1,6 km/h (1 Bft) N 0,00 h 0,025 mm 0 W/m 15,2 C 18,3 C 2,6 km/h (1 Bft)
16/06/2005 01:00 17,5 C 85 % 1017,4 hPa 0,0 l/m 1,9 km/h (1 Bft) N-NE 0,00 h 0,025 mm 0 W/m 14,9 C 17,5 C 3,8 km/h (1 Bft)
16/06/2005 02:00 17,3 C 86 % 1017,4 hPa 0,0 l/m 0,8 km/h (0 Bft) N 0,00 h 0,025 mm 0 W/m 14,9 C 17,3 C 2,2 km/h (1 Bft)
16/06/2005 03:00 17,2 C 87 % 1017,2 hPa 0,0 l/m 1,5 km/h (1 Bft) NE 0,00 h 0,025 mm 0 W/m 14,9 C 17,2 C 3,1 km/h (1 Bft)
16/06/2005 04:00 16,9 C 87 % 1017,2 hPa 0,0 l/m 4,1 km/h (1 Bft) S-SO 0,00 h 0,025 mm 0 W/m 14,7 C 16,9 C 5,0 km/h (1 Bft)
16/06/2005 05:00 16,7 C 87 % 1017,3 hPa 0,0 l/m 3,5 km/h (1 Bft) SO 0,00 h 0,025 mm 6 W/m 14,6 C 16,7 C 4,4 km/h (1 Bft)
16/06/2005 06:00 17,0 C 88 % 1017,6 hPa 0,0 l/m 4,6 km/h (1 Bft) O-SO 0,00 h 0,000 mm 24 W/m 14,9 C 17,0 C 5,9 km/h (2 Bft)
16/06/2005 07:00 18,7 C 82 % 1017,9 hPa 0,0 l/m 2,0 km/h (1 Bft) O-NO 0,62 h 0,025 mm 158 W/m 15,6 C 18,7 C 3,4 km/h (1 Bft)
16/06/2005 08:00 21,5 C 73 % 1018,2 hPa 0,0 l/m 2,2 km/h (1 Bft) SO 1,00 h 0,102 mm 356 W/m 16,4 C 21,5 C 3,5 km/h (1 Bft)
16/06/2005 09:00 24,2 C 62 % 1018,5 hPa 0,0 l/m 3,3 km/h (1 Bft) E 1,00 h 0,229 mm 530 W/m 16,3 C 24,2 C 5,4 km/h (1 Bft)
16/06/2005 10:00 25,4 C 57 % 1018,8 hPa 0,0 l/m 7,5 km/h (2 Bft) E 1,00 h 0,356 mm 672 W/m 16,1 C 25,4 C 10,4 km/h (2 Bft)
16/06/2005 11:00 26,3 C 52 % 1018,9 hPa 0,0 l/m 8,4 km/h (2 Bft) S 1,00 h 0,483 mm 781 W/m 15,6 C 26,3 C 12,9 km/h (3 Bft)
16/06/2005 12:00 26,6 C 51 % 1019,1 hPa 0,0 l/m 9,2 km/h (2 Bft) S 1,00 h 0,559 mm 858 W/m 15,5 C 26,6 C 14,9 km/h (3 Bft)
16/06/2005 13:00 26,7 C 48 % 1019,4 hPa 0,0 l/m 9,5 km/h (2 Bft) S 1,00 h 0,610 mm 804 W/m 14,8 C 26,7 C 14,8 km/h (3 Bft)
16/06/2005 14:00 27,0 C 48 % 1019,5 hPa 0,0 l/m 8,2 km/h (2 Bft) S 1,00 h 0,584 mm 853 W/m 15,0 C 27,0 C 13,4 km/h (3 Bft)
16/06/2005 15:00 27,4 C 47 % 1019,4 hPa 0,0 l/m 9,1 km/h (2 Bft) S 1,00 h 0,610 mm 807 W/m 15,0 C 27,4 C 14,1 km/h (3 Bft)
16/06/2005 16:00 27,5 C 46 % 1019,5 hPa 0,0 l/m 8,3 km/h (2 Bft) S 0,95 h 0,610 mm 635 W/m 14,9 C 27,5 C 13,1 km/h (3 Bft)
16/06/2005 17:00 26,6 C 51 % 1019,4 hPa 0,0 l/m 9,4 km/h (2 Bft) O-SO 0,78 h 0,483 mm 440 W/m 15,7 C 26,6 C 13,4 km/h (3 Bft)
16/06/2005 18:00 27,0 C 49 % 1019,2 hPa 0,0 l/m 7,0 km/h (2 Bft) O-SO 1,00 h 0,356 mm 364 W/m 15,4 C 27,0 C 10,3 km/h (2 Bft)
16/06/2005 19:00 26,1 C 50 % 1019,3 hPa 0,0 l/m 6,1 km/h (2 Bft) O-SO 0,58 h 0,305 mm 168 W/m 15,0 C 26,1 C 8,9 km/h (2 Bft)
16/06/2005 20:00 24,8 C 56 % 1019,6 hPa 0,0 l/m 3,0 km/h (1 Bft) O-NO 0,00 h 0,152 mm 39 W/m 15,3 C 24,8 C 4,5 km/h (1 Bft)
16/06/2005 21:00 22,9 C 67 % 1020,1 hPa 0,0 l/m 6,4 km/h (2 Bft) O-NO 0,00 h 0,051 mm 6 W/m 16,4 C 22,9 C 8,1 km/h (2 Bft)
16/06/2005 22:00 21,4 C 76 % 1020,5 hPa 0,0 l/m 7,3 km/h (2 Bft) NO 0,00 h 0,051 mm 0 W/m 16,9 C 21,4 C 10,0 km/h (2 Bft)
16/06/2005 23:00 20,9 C 77 % 1020,9 hPa 0,0 l/m 4,4 km/h (1 Bft) NO 0,00 h 0,051 mm 0 W/m 16,7 C 20,9 C 6,2 km/h (2 Bft)
17/06/2005 00:00 21,5 C 71 % 1021,0 hPa 0,0 l/m 3,4 km/h (1 Bft) NO 0,00 h 0,025 mm 0 W/m 16,0 C 21,5 C 4,8 km/h (1 Bft)
17/06/2005 01:00 21,0 C 72 % 1020,9 hPa 0,0 l/m 3,7 km/h (1 Bft) NO 0,00 h 0,051 mm 0 W/m 15,7 C 21,0 C 5,8 km/h (2 Bft)
17/06/2005 02:00 20,8 C 71 % 1020,9 hPa 0,0 l/m 4,8 km/h (1 Bft) NO 0,00 h 0,025 mm 0 W/m 15,3 C 20,8 C 7,0 km/h (2 Bft)
17/06/2005 03:00 21,0 C 68 % 1020,8 hPa 0,0 l/m 4,2 km/h (1 Bft) NO 0,00 h 0,051 mm 0 W/m 14,9 C 21,0 C 6,3 km/h (2 Bft)
17/06/2005 04:00 20,6 C 68 % 1021,0 hPa 0,0 l/m 4,2 km/h (1 Bft) O-NO 0,00 h 0,051 mm 0 W/m 14,4 C 20,6 C 6,3 km/h (2 Bft)
17/06/2005 05:00 20,5 C 65 % 1021,4 hPa 0,0 l/m 4,3 km/h (1 Bft) NO 0,00 h 0,051 mm 6 W/m 13,7 C 20,5 C 6,5 km/h (2 Bft)
17/06/2005 06:00 20,9 C 62 % 1021,7 hPa 0,0 l/m 4,2 km/h (1 Bft) N-NO 0,00 h 0,025 mm 23 W/m 13,4 C 20,9 C 6,4 km/h (2 Bft)
17/06/2005 07:00 22,6 C 58 % 1022,0 hPa 0,0 l/m 4,2 km/h (1 Bft) NO 0,60 h 0,051 mm 143 W/m 13,9 C 22,6 C 6,7 km/h (2 Bft)
17/06/2005 08:00 25,4 C 52 % 1022,5 hPa 0,0 l/m 3,1 km/h (1 Bft) O-NO 1,00 h 0,127 mm 354 W/m 14,8 C 25,4 C 5,3 km/h (1 Bft)
17/06/2005 09:00 27,9 C 42 % 1022,9 hPa 0,0 l/m 3,4 km/h (1 Bft) NE 1,00 h 0,254 mm 527 W/m 13,7 C 27,9 C 5,7 km/h (1 Bft)
17/06/2005 10:00 28,7 C 38 % 1023,3 hPa 0,0 l/m 6,5 km/h (2 Bft) E 1,00 h 0,381 mm 676 W/m 12,8 C 28,7 C 10,5 km/h (2 Bft)
17/06/2005 11:00 29,3 C 34 % 1023,4 hPa 0,0 l/m 8,3 km/h (2 Bft) E 1,00 h 0,508 mm 801 W/m 11,9 C 29,3 C 13,5 km/h (3 Bft)
17/06/2005 12:00 29,8 C 32 % 1023,5 hPa 0,0 l/m 8,2 km/h (2 Bft) E 1,00 h 0,635 mm 880 W/m 11,3 C 29,8 C 13,1 km/h (3 Bft)
17/06/2005 13:00 30,3 C 31 % 1023,2 hPa 0,0 l/m 8,4 km/h (2 Bft) E 1,00 h 0,686 mm 905 W/m 11,2 C 30,3 C 13,7 km/h (3 Bft)
17/06/2005 14:00 30,0 C 32 % 1023,0 hPa 0,0 l/m 10,6 km/h (2 Bft) E 1,00 h 0,711 mm 873 W/m 11,6 C 30,0 C 15,6 km/h (3 Bft)
17/06/2005 15:00 30,0 C 32 % 1022,9 hPa 0,0 l/m 9,2 km/h (2 Bft) E 1,00 h 0,711 mm 802 W/m 11,3 C 30,0 C 13,9 km/h (3 Bft)
17/06/2005 16:00 29,9 C 32 % 1022,6 hPa 0,0 l/m 7,4 km/h (2 Bft) E 1,00 h 0,635 mm 676 W/m 11,4 C 29,9 C 10,8 km/h (2 Bft)
17/06/2005 17:00 29,8 C 32 % 1022,3 hPa 0,0 l/m 7,1 km/h (2 Bft) E-SE 1,00 h 0,533 mm 548 W/m 11,4 C 29,8 C 9,8 km/h (2 Bft)
17/06/2005 18:00 29,4 C 32 % 1021,6 hPa 0,0 l/m 4,1 km/h (1 Bft) E-SE 1,00 h 0,457 mm 388 W/m 11,2 C 29,4 C 6,5 km/h (2 Bft)
17/06/2005 19:00 28,5 C 37 % 1021,4 hPa 0,0 l/m 1,9 km/h (1 Bft) E-SE 0,60 h 0,305 mm 168 W/m 12,2 C 28,5 C 3,7 km/h (1 Bft)
17/06/2005 20:00 26,8 C 44 % 1021,4 hPa 0,0 l/m 0,7 km/h (0 Bft) N 0,00 h 0,152 mm 40 W/m 13,4 C 26,8 C 1,6 km/h (1 Bft)
17/06/2005 21:00 25,1 C 48 % 1021,7 hPa 0,0 l/m 3,6 km/h (1 Bft) O-NO 0,02 h 0,051 mm 8 W/m 13,4 C 25,1 C 5,4 km/h (1 Bft)
17/06/2005 22:00 23,9 C 52 % 1021,8 hPa 0,0 l/m 5,9 km/h (2 Bft) O-NO 0,00 h 0,051 mm 0 W/m 13,4 C 23,9 C 8,4 km/h (2 Bft)
17/06/2005 23:00 23,4 C 52 % 1021,8 hPa 0,0 l/m 7,3 km/h (2 Bft) O-NO 0,00 h 0,076 mm 0 W/m 13,1 C 23,4 C 11,3 km/h (2 Bft)
18/06/2005 00:00 23,4 C 51 % 1021,8 hPa 0,0 l/m 5,0 km/h (1 Bft) O-NO 0,00 h 0,076 mm 0 W/m 12,6 C 23,4 C 8,0 km/h (2 Bft)
18/06/2005 01:00 23,3 C 51 % 1021,5 hPa 0,0 l/m 4,6 km/h (1 Bft) NO 0,00 h 0,076 mm 0 W/m 12,6 C 23,3 C 7,8 km/h (2 Bft)
18/06/2005 02:00 22,9 C 52 % 1021,2 hPa 0,0 l/m 4,3 km/h (1 Bft) NO 0,00 h 0,076 mm 0 W/m 12,6 C 22,9 C 7,4 km/h (2 Bft)
18/06/2005 03:00 22,8 C 53 % 1020,8 hPa 0,0 l/m 5,3 km/h (1 Bft) O-NO 0,00 h 0,076 mm 0 W/m 12,6 C 22,8 C 8,8 km/h (2 Bft)
18/06/2005 04:00 22,4 C 54 % 1020,4 hPa 0,0 l/m 5,1 km/h (1 Bft) O-NO 0,00 h 0,076 mm 0 W/m 12,8 C 22,4 C 7,7 km/h (2 Bft)
18/06/2005 05:00 22,1 C 56 % 1020,3 hPa 0,0 l/m 3,9 km/h (1 Bft) NO 0,00 h 0,076 mm 6 W/m 12,9 C 22,1 C 6,2 km/h (2 Bft)
18/06/2005 06:00 22,1 C 57 % 1020,3 hPa 0,0 l/m 2,7 km/h (1 Bft) NO 0,02 h 0,025 mm 35 W/m 13,2 C 22,1 C 4,4 km/h (1 Bft)
18/06/2005 07:00 23,3 C 57 % 1020,3 hPa 0,0 l/m 0,7 km/h (0 Bft) NO 0,60 h 0,051 mm 149 W/m 14,2 C 23,3 C 1,8 km/h (1 Bft)
18/06/2005 08:00 25,8 C 51 % 1020,3 hPa 0,0 l/m 2,1 km/h (1 Bft) NE 1,00 h 0,102 mm 340 W/m 14,8 C 25,8 C 3,7 km/h (1 Bft)
18/06/2005 09:00 27,5 C 46 % 1020,5 hPa 0,0 l/m 7,3 km/h (2 Bft) E 1,00 h 0,229 mm 514 W/m 14,9 C 27,5 C 10,7 km/h (2 Bft)
18/06/2005 10:00 28,5 C 40 % 1020,6 hPa 0,0 l/m 6,4 km/h (2 Bft) E 1,00 h 0,406 mm 657 W/m 13,7 C 28,5 C 10,7 km/h (2 Bft)
18/06/2005 11:00 28,4 C 40 % 1020,7 hPa 0,0 l/m 8,5 km/h (2 Bft) E-SE 1,00 h 0,508 mm 792 W/m 13,3 C 28,4 C 13,9 km/h (3 Bft)
18/06/2005 12:00 28,6 C 38 % 1020,4 hPa 0,0 l/m 7,1 km/h (2 Bft) E-SE 1,00 h 0,610 mm 840 W/m 12,9 C 28,6 C 11,5 km/h (2 Bft)
18/06/2005 13:00 29,1 C 36 % 1020,2 hPa 0,0 l/m 7,9 km/h (2 Bft) E-SE 1,00 h 0,635 mm 858 W/m 12,6 C 29,1 C 12,0 km/h (2 Bft)
18/06/2005 14:00 28,9 C 37 % 1019,7 hPa 0,0 l/m 9,4 km/h (2 Bft) E-SE 1,00 h 0,660 mm 857 W/m 12,7 C 28,9 C 14,1 km/h (3 Bft)
18/06/2005 15:00 29,4 C 33 % 1019,0 hPa 0,0 l/m 9,0 km/h (2 Bft) E 0,95 h 0,660 mm 788 W/m 11,4 C 29,4 C 14,0 km/h (3 Bft)
18/06/2005 16:00 29,1 C 33 % 1018,7 hPa 0,0 l/m 7,5 km/h (2 Bft) E 0,98 h 0,635 mm 589 W/m 11,1 C 29,1 C 10,9 km/h (2 Bft)
18/06/2005 17:00 28,7 C 34 % 1018,3 hPa 0,0 l/m 6,2 km/h (2 Bft) E-SE 1,00 h 0,483 mm 495 W/m 11,4 C 28,7 C 8,7 km/h (2 Bft)
18/06/2005 18:00 28,5 C 39 % 1017,7 hPa 0,0 l/m 4,2 km/h (1 Bft) E 1,00 h 0,406 mm 340 W/m 13,0 C 28,5 C 6,4 km/h (2 Bft)
18/06/2005 19:00 27,8 C 38 % 1017,2 hPa 0,0 l/m 4,1 km/h (1 Bft) S 1,00 h 0,279 mm 184 W/m 12,2 C 27,8 C 6,0 km/h (2 Bft)
18/06/2005 20:00 26,7 C 45 % 1017,0 hPa 0,0 l/m 2,3 km/h (1 Bft) S-SO 0,33 h 0,178 mm 51 W/m 13,9 C 26,7 C 3,7 km/h (1 Bft)
18/06/2005 21:00 24,7 C 55 % 1016,9 hPa 0,0 l/m 0,3 km/h (0 Bft) N 0,10 h 0,076 mm 8 W/m 15,1 C 24,7 C 0,6 km/h (0 Bft)
18/06/2005 22:00 23,6 C 55 % 1016,8 hPa 0,0 l/m 2,7 km/h (1 Bft) O-NO 0,00 h 0,025 mm 0 W/m 14,1 C 23,6 C 4,4 km/h (1 Bft)
18/06/2005 23:00 22,8 C 57 % 1016,6 hPa 0,0 l/m 3,2 km/h (1 Bft) N-NO 0,00 h 0,051 mm 0 W/m 13,8 C 22,8 C 5,3 km/h (1 Bft)
19/06/2005 00:00 22,9 C 56 % 1016,6 hPa 0,0 l/m 2,2 km/h (1 Bft) O-NO 0,00 h 0,051 mm 0 W/m 13,6 C 22,9 C 3,4 km/h (1 Bft)
19/06/2005 01:00 22,8 C 56 % 1016,5 hPa 0,0 l/m 6,1 km/h (2 Bft) O-NO 0,00 h 0,051 mm 0 W/m 13,6 C 22,8 C 7,4 km/h (2 Bft)
19/06/2005 02:00 22,3 C 58 % 1016,1 hPa 0,0 l/m 3,9 km/h (1 Bft) O-NO 0,00 h 0,076 mm 0 W/m 13,6 C 22,3 C 6,0 km/h (2 Bft)
19/06/2005 03:00 22,3 C 58 % 1015,7 hPa 0,0 l/m 4,1 km/h (1 Bft) O-NO 0,00 h 0,051 mm 0 W/m 13,7 C 22,3 C 6,6 km/h (2 Bft)
19/06/2005 04:00 22,0 C 60 % 1015,5 hPa 0,0 l/m 2,2 km/h (1 Bft) NO 0,00 h 0,051 mm 0 W/m 13,8 C 22,0 C 3,9 km/h (1 Bft)
19/06/2005 05:00 21,3 C 62 % 1015,6 hPa 0,0 l/m 3,6 km/h (1 Bft) NO 0,00 h 0,051 mm 6 W/m 13,8 C 21,3 C 5,0 km/h (1 Bft)
19/06/2005 06:00 21,6 C 62 % 1015,7 hPa 0,0 l/m 2,6 km/h (1 Bft) O-NO 0,02 h 0,025 mm 25 W/m 14,0 C 21,6 C 4,5 km/h (1 Bft)
19/06/2005 07:00 22,8 C 60 % 1015,5 hPa 0,0 l/m 0,8 km/h (0 Bft) N 0,60 h 0,025 mm 145 W/m 14,5 C 22,8 C 2,2 km/h (1 Bft)
19/06/2005 08:00 26,1 C 51 % 1015,5 hPa 0,0 l/m 1,5 km/h (1 Bft) E-NE 1,00 h 0,102 mm 345 W/m 15,0 C 26,1 C 2,7 km/h (1 Bft)
19/06/2005 09:00 27,6 C 46 % 1015,5 hPa 0,0 l/m 4,3 km/h (1 Bft) E 1,00 h 0,229 mm 518 W/m 15,0 C 27,6 C 6,5 km/h (2 Bft)
19/06/2005 10:00 27,5 C 48 % 1015,5 hPa 0,0 l/m 7,4 km/h (2 Bft) E-SE 1,00 h 0,381 mm 669 W/m 15,6 C 27,5 C 10,3 km/h (2 Bft)
19/06/2005 11:00 27,4 C 50 % 1015,6 hPa 0,0 l/m 8,8 km/h (2 Bft) E-SE 1,00 h 0,508 mm 786 W/m 16,0 C 27,4 C 12,7 km/h (3 Bft)
19/06/2005 12:00 28,0 C 47 % 1015,7 hPa 0,0 l/m 8,0 km/h (2 Bft) E-SE 1,00 h 0,584 mm 861 W/m 15,6 C 28,0 C 11,6 km/h (2 Bft)
19/06/2005 13:00 28,7 C 45 % 1015,4 hPa 0,0 l/m 8,3 km/h (2 Bft) E-SE 1,00 h 0,635 mm 887 W/m 15,6 C 28,7 C 12,6 km/h (3 Bft)
19/06/2005 14:00 28,8 C 49 % 1015,0 hPa 0,0 l/m 9,6 km/h (2 Bft) E 1,00 h 0,660 mm 864 W/m 17,0 C 28,8 C 13,9 km/h (3 Bft)
19/06/2005 15:00 28,7 C 55 % 1014,7 hPa 0,0 l/m 8,4 km/h (2 Bft) E 0,80 h 0,660 mm 703 W/m 18,6 C 28,7 C 12,2 km/h (2 Bft)
19/06/2005 16:00 25,7 C 68 % 1015,0 hPa 0,0 l/m 4,6 km/h (1 Bft) E 0,00 h 0,533 mm 97 W/m 19,2 C 25,7 C 6,6 km/h (2 Bft)
19/06/2005 17:00 24,1 C 75 % 1015,3 hPa 0,2 l/m 1,7 km/h (1 Bft) N 0,00 h 0,102 mm 18 W/m 19,4 C 24,1 C 2,8 km/h (1 Bft)
19/06/2005 18:00 22,8 C 83 % 1014,5 hPa 0,2 l/m 5,8 km/h (2 Bft) SO 0,00 h 0,025 mm 46 W/m 19,8 C 22,8 C 8,2 km/h (2 Bft)
19/06/2005 19:00 22,9 C 75 % 1014,6 hPa 0,0 l/m 8,4 km/h (2 Bft) O-SO 0,00 h 0,051 mm 34 W/m 18,1 C 22,9 C 11,9 km/h (2 Bft)
19/06/2005 20:00 22,4 C 75 % 1014,5 hPa 0,0 l/m 2,5 km/h (1 Bft) N 0,00 h 0,051 mm 23 W/m 17,8 C 22,4 C 4,5 km/h (1 Bft)
19/06/2005 21:00 22,6 C 69 % 1012,9 hPa 0,0 l/m 7,4 km/h (2 Bft) E 0,00 h 0,025 mm 5 W/m 16,5 C 22,6 C 10,4 km/h (2 Bft)
19/06/2005 22:00 21,8 C 67 % 1013,3 hPa 0,0 l/m 7,7 km/h (2 Bft) SO 0,00 h 0,051 mm 0 W/m 15,3 C 21,8 C 10,3 km/h (2 Bft)
19/06/2005 23:00 21,8 C 67 % 1013,8 hPa 0,0 l/m 4,0 km/h (1 Bft) S-SO 0,00 h 0,051 mm 0 W/m 15,3 C 21,8 C 5,6 km/h (1 Bft)
Min-Date _ 13/06/05 13/06/05 14/06/05 - 13/06/05 - - - - 13/06/05 13/06/05 13/06/05
_ Min-Heure 02:44 12:00 06:45 - 00:10 - - - - 12:29 02:44 00:10
Minimum _ 14,4 C 27 % 1010,7 hPa - 0,0 km/h (0 Bft) - - - - 4,0 C 14,4 C 0,0 km/h (0 Bft)
Max-Date _ 17/06/05 15/06/05 17/06/05 14/06/05 19/06/05 - 13/06/05 17/06/05 13/06/05 19/06/05 17/06/05 19/06/05
_ Max-Heure 12:55 03:48 11:45 19:16 19:08 - 07:22 14:00 14:19 17:56 12:55 19:08
Maximum _ 31,5 C 94 % 1023,6 hPa 3,0 l/m 27,4 km/h
O-SO (4 Bft)
- 0,02 h 0,711 mm 1104 W/m 20,5 C 31,5 C 37,0 km/h
O-SO (5 Bft)
Moyenne _ 22,2 C 64 % 1016,6 hPa #7,8 l/m 4,9 km/h (1 Bft) E #65:31 h #35,804 mm 392 W/m 14,3 C 22,2 C 7,7 km/h (2 Bft)
Roquefort les pins